createdAt,value
2019-06-01T00:01:32.521Z,13.04
2019-06-01T00:04:06.367Z,12.96
2019-06-01T00:06:58.527Z,12.90
2019-06-01T00:09:32.259Z,12.80
2019-06-01T00:12:09.353Z,12.76
2019-06-01T00:14:48.156Z,12.70
2019-06-01T00:17:25.495Z,12.67
2019-06-01T00:19:58.414Z,12.62
2019-06-01T00:22:34.068Z,12.60
2019-06-01T00:25:06.291Z,12.59
2019-06-01T00:27:48.807Z,12.59
2019-06-01T00:30:27.069Z,12.49
2019-06-01T00:32:57.788Z,12.43
2019-06-01T00:35:35.289Z,12.40
2019-06-01T01:03:08.933Z,12.01
2019-06-01T01:05:44.792Z,12.06
2019-06-01T01:08:19.049Z,12.05
2019-06-01T01:11:05.272Z,11.99
2019-06-01T01:13:37.401Z,11.99
2019-06-01T01:16:21.192Z,12.00
2019-06-01T01:18:52.005Z,11.91
2019-06-01T01:21:34.964Z,11.91
2019-06-01T01:24:06.002Z,11.91
2019-06-01T01:26:38.427Z,11.83
2019-06-01T01:29:18.422Z,11.79
2019-06-01T01:31:51.134Z,11.85
2019-06-01T01:34:22.232Z,11.85
2019-06-01T01:37:05.877Z,11.84
2019-06-01T01:39:54.910Z,11.81
2019-06-01T01:42:28.950Z,11.83
2019-06-01T01:45:01.915Z,11.81
2019-06-01T01:47:34.068Z,11.79
2019-06-01T01:50:08.812Z,11.77
2019-06-01T01:52:41.194Z,11.69
2019-06-01T01:55:12.766Z,11.63
2019-06-01T01:57:44.753Z,11.52
2019-06-01T02:00:17.465Z,11.47
2019-06-01T02:02:51.879Z,11.57
2019-06-01T02:05:24.416Z,11.54
2019-06-01T02:08:00.092Z,11.45
2019-06-01T02:10:32.292Z,11.38
2019-06-01T02:13:05.614Z,11.31
2019-06-01T02:15:39.444Z,11.21
2019-06-01T02:18:10.248Z,11.20
2019-06-01T02:20:49.980Z,11.28
2019-06-01T02:23:24.294Z,11.29
2019-06-01T02:25:56.941Z,11.27
2019-06-01T02:28:31.270Z,11.28
2019-06-01T02:31:04.084Z,11.31
2019-06-01T02:33:35.743Z,11.30
2019-06-01T02:36:09.254Z,11.28
2019-06-01T02:38:48.913Z,11.26
2019-06-01T02:41:21.210Z,11.22
2019-06-01T02:43:57.312Z,11.10
2019-06-01T02:46:29.101Z,11.04
2019-06-01T02:49:11.573Z,10.98
2019-06-01T02:51:42.833Z,10.93
2019-06-01T02:54:13.979Z,10.92
2019-06-01T02:56:44.686Z,11.01
2019-06-01T02:59:15.844Z,11.08
2019-06-01T03:01:57.312Z,11.06
2019-06-01T03:04:21.661Z,10.95
2019-06-01T03:06:54.134Z,10.83
2019-06-01T03:09:26.790Z,10.87
2019-06-01T03:12:00.845Z,10.97
2019-06-01T03:14:36.094Z,10.91
2019-06-01T03:17:26.103Z,10.93
2019-06-01T03:19:59.750Z,10.93
2019-06-01T03:22:31.367Z,10.94
2019-06-01T03:25:15.232Z,10.90
2019-06-01T03:27:49.269Z,10.86
2019-06-01T03:30:36.532Z,10.86
2019-06-01T03:33:10.336Z,10.86
2019-06-01T03:35:40.673Z,10.94
2019-06-01T03:38:11.972Z,10.91
2019-06-01T03:40:43.373Z,10.95
2019-06-01T03:43:15.331Z,10.90
2019-06-01T03:45:46.424Z,10.93
2019-06-01T03:48:18.948Z,10.98
2019-06-01T03:50:53.626Z,11.05
2019-06-01T03:53:25.417Z,10.99
2019-06-01T03:55:56.313Z,11.01
2019-06-01T03:58:27.744Z,11.04
2019-06-01T04:00:59.391Z,11.06
2019-06-01T04:03:30.821Z,11.08
2019-06-01T04:06:03.235Z,11.12
2019-06-01T04:08:35.307Z,11.12
2019-06-01T04:11:07.673Z,11.15
2019-06-01T04:13:40.113Z,11.21
2019-06-01T04:16:12.024Z,11.21
2019-06-01T04:18:43.613Z,11.25
2019-06-01T04:21:14.687Z,11.29
2019-06-01T04:23:52.463Z,11.32
2019-06-01T04:26:23.827Z,11.35
2019-06-01T04:28:54.149Z,11.39
2019-06-01T04:31:25.119Z,11.47
2019-06-01T04:33:56.531Z,11.59
2019-06-01T04:36:28.086Z,11.76
2019-06-01T04:38:58.816Z,12.00
2019-06-01T04:41:29.941Z,12.42
2019-06-01T04:44:00.583Z,12.92
2019-06-01T04:46:32.331Z,13.34
2019-06-01T04:49:04.308Z,13.71
2019-06-01T04:51:35.849Z,13.89
2019-06-01T04:54:08.728Z,14.32
2019-06-01T04:56:40.522Z,14.57
2019-06-01T04:59:12.960Z,14.95
2019-06-01T05:01:44.433Z,15.36
2019-06-01T05:04:16.172Z,15.62
2019-06-01T05:07:07.260Z,15.84
2019-06-01T05:09:38.532Z,16.11
2019-06-01T05:12:09.467Z,16.12
2019-06-01T05:14:59.051Z,16.27
2019-06-01T05:17:30.476Z,16.61
2019-06-01T05:20:01.764Z,16.84
2019-06-01T05:22:34.825Z,17.21
2019-06-01T05:25:06.827Z,17.84
2019-06-01T05:27:38.917Z,18.59
2019-06-01T05:30:11.459Z,19.64
2019-06-01T05:32:42.284Z,21.47
2019-06-01T05:35:13.787Z,23.21
2019-06-01T05:37:45.367Z,24.65
2019-06-01T05:40:16.722Z,24.49
2019-06-01T05:42:48.184Z,24.37
2019-06-01T05:45:22.703Z,24.76
2019-06-01T05:47:53.253Z,25.93
2019-06-01T05:50:24.349Z,26.77
2019-06-01T05:52:59.804Z,28.20
2019-06-01T05:55:31.323Z,28.13
2019-06-01T05:58:06.165Z,28.42
2019-06-01T06:00:44.325Z,29.02
2019-06-01T06:03:19.063Z,28.33
2019-06-01T06:05:50.009Z,28.81
2019-06-01T06:08:22.395Z,29.26
2019-06-01T06:10:53.984Z,29.38
2019-06-01T06:13:25.927Z,28.51
2019-06-01T06:15:57.370Z,29.32
2019-06-01T06:18:28.787Z,30.94
2019-06-01T06:21:03.788Z,30.44
2019-06-01T06:23:35.658Z,30.10
2019-06-01T06:26:06.374Z,28.41
2019-06-01T06:28:40.779Z,29.03
2019-06-01T06:31:15.078Z,29.60
2019-06-01T06:33:56.666Z,28.39
2019-06-01T06:36:24.135Z,29.25
2019-06-01T06:41:37.297Z,29.59
2019-06-01T06:44:08.254Z,28.05
2019-06-01T06:46:39.982Z,27.40
2019-06-01T06:49:10.647Z,27.08
2019-06-01T06:51:42.089Z,27.58
2019-06-01T06:54:16.089Z,28.48
2019-06-01T06:56:47.796Z,29.24
2019-06-01T06:59:18.537Z,28.39
2019-06-01T07:01:49.217Z,25.53
2019-06-01T07:04:21.156Z,28.10
2019-06-01T07:06:52.186Z,27.68
2019-06-01T07:09:24.248Z,29.22
2019-06-01T07:11:55.275Z,29.98
2019-06-01T07:14:27.588Z,29.44
2019-06-01T07:17:02.942Z,28.95
2019-06-01T07:19:34.523Z,28.42
2019-06-01T07:22:06.067Z,27.23
2019-06-01T07:24:37.642Z,26.54
2019-06-01T07:27:08.940Z,26.89
2019-06-01T07:29:40.918Z,28.12
2019-06-01T07:32:11.787Z,28.67
2019-06-01T07:34:43.039Z,30.39
2019-06-01T07:37:13.736Z,29.50
2019-06-01T07:39:44.847Z,28.33
2019-06-01T07:42:16.422Z,26.12
2019-06-01T07:44:48.508Z,27.78
2019-06-01T07:47:20.772Z,27.13
2019-06-01T07:49:53.447Z,25.85
2019-06-01T07:52:24.248Z,27.84
2019-06-01T07:54:55.303Z,29.91
2019-06-01T07:57:27.770Z,30.79
2019-06-01T07:59:58.751Z,28.57
2019-06-01T08:02:30.846Z,28.34
2019-06-01T08:05:02.035Z,28.83
2019-06-01T08:07:33.419Z,28.79
2019-06-01T08:10:04.736Z,29.44
2019-06-01T08:12:36.083Z,29.27
2019-06-01T08:15:09.079Z,28.80
2019-06-01T08:17:41.050Z,29.49
2019-06-01T08:20:12.695Z,30.81
2019-06-01T08:22:43.728Z,29.36
2019-06-01T08:25:14.777Z,31.19
2019-06-01T08:27:48.151Z,31.54
2019-06-01T08:30:19.033Z,30.66
2019-06-01T08:32:50.462Z,31.12
2019-06-01T08:35:22.768Z,31.05
2019-06-01T08:37:54.290Z,29.86
2019-06-01T08:40:29.459Z,31.34
2019-06-01T08:43:00.585Z,31.29
2019-06-01T08:45:36.130Z,31.52
2019-06-01T08:48:05.092Z,29.54
2019-06-01T08:50:36.145Z,31.50
2019-06-01T08:53:07.493Z,31.07
2019-06-01T08:55:39.108Z,31.03
2019-06-01T08:58:10.331Z,29.47
2019-06-01T09:00:41.031Z,31.33
2019-06-01T09:03:11.332Z,28.96
2019-06-01T09:05:42.669Z,28.10
2019-06-01T09:08:13.629Z,26.91
2019-06-01T09:10:45.460Z,29.55
2019-06-01T09:13:16.250Z,28.42
2019-06-01T09:15:47.552Z,29.59
2019-06-01T09:18:19.032Z,30.78
2019-06-01T09:20:49.783Z,30.59
2019-06-01T09:23:21.445Z,30.60
2019-06-01T09:25:54.926Z,28.42
2019-06-01T09:28:26.250Z,30.41
2019-06-01T09:30:57.944Z,31.60
2019-06-01T09:33:29.792Z,30.98
2019-06-01T09:36:04.515Z,31.68
2019-06-01T09:38:35.853Z,28.98
2019-06-01T09:41:08.337Z,31.30
2019-06-01T09:43:39.355Z,29.74
2019-06-01T09:46:10.389Z,28.80
2019-06-01T09:48:41.428Z,28.83
2019-06-01T09:51:12.383Z,28.71
2019-06-01T09:53:44.577Z,30.93
2019-06-01T09:56:14.957Z,32.87
2019-06-01T09:58:45.279Z,32.40
2019-06-01T10:01:16.758Z,33.64
2019-06-01T10:03:48.083Z,33.56
2019-06-01T10:06:18.713Z,31.95
2019-06-01T10:08:49.772Z,28.97
2019-06-01T10:11:21.114Z,28.41
2019-06-01T10:13:52.279Z,29.60
2019-06-01T10:16:24.297Z,31.17
2019-06-01T10:18:55.956Z,31.18
2019-06-01T10:21:27.706Z,33.04
2019-06-01T10:23:59.382Z,33.86
2019-06-01T10:26:31.343Z,35.36
2019-06-01T10:29:02.585Z,32.14
2019-06-01T10:31:34.665Z,30.96
2019-06-01T10:34:06.022Z,31.74
2019-06-01T10:36:38.057Z,32.84
2019-06-01T10:39:09.405Z,33.01
2019-06-01T10:41:41.542Z,33.86
2019-06-01T10:44:13.506Z,33.54
2019-06-01T10:46:50.775Z,32.02
2019-06-01T10:49:24.964Z,32.87
2019-06-01T10:51:58.659Z,33.17
2019-06-01T10:54:30.289Z,33.54
2019-06-01T10:57:01.668Z,35.23
2019-06-01T10:59:32.929Z,36.62
2019-06-01T11:02:12.348Z,34.76
2019-06-01T11:04:44.082Z,34.18
2019-06-01T11:07:17.088Z,34.38
2019-06-01T11:09:48.546Z,33.72
2019-06-01T11:12:19.391Z,34.71
2019-06-01T11:14:50.100Z,36.68
2019-06-01T11:17:20.813Z,36.71
2019-06-01T11:19:52.092Z,33.50
2019-06-01T11:22:23.138Z,32.01
2019-06-01T11:24:58.635Z,32.29
2019-06-01T11:27:29.299Z,34.49
2019-06-01T11:30:00.353Z,34.44
2019-06-01T11:32:31.693Z,35.14
2019-06-01T11:35:02.758Z,36.38
2019-06-01T11:37:34.399Z,35.44
2019-06-01T11:40:06.045Z,35.94
2019-06-01T11:42:37.183Z,34.85
2019-06-01T11:45:09.858Z,35.30
2019-06-01T11:47:41.023Z,33.80
2019-06-01T11:50:12.365Z,33.50
2019-06-01T11:52:43.310Z,36.16
2019-06-01T11:55:15.327Z,33.48
2019-06-01T11:57:46.061Z,33.23
2019-06-01T12:00:18.031Z,34.77
2019-06-01T12:02:49.427Z,33.99
2019-06-01T12:05:20.160Z,32.13
2019-06-01T12:07:51.505Z,35.21
2019-06-01T12:10:22.540Z,35.12
2019-06-01T12:12:53.164Z,33.39
2019-06-01T12:15:26.635Z,35.01
2019-06-01T12:17:56.912Z,35.67
2019-06-01T12:20:27.808Z,35.71
2019-06-01T12:22:58.865Z,34.96
2019-06-01T12:25:29.910Z,35.70
2019-06-01T12:28:01.376Z,35.44
2019-06-01T12:30:32.325Z,36.86
2019-06-01T12:33:02.995Z,39.07
2019-06-01T12:35:33.906Z,35.74
2019-06-01T12:38:06.838Z,36.68
2019-06-01T12:40:37.590Z,37.03
2019-06-01T12:43:08.776Z,33.45
2019-06-01T12:45:40.036Z,34.17
2019-06-01T12:48:11.137Z,33.55
2019-06-01T12:50:42.181Z,35.65
2019-06-01T12:53:13.066Z,37.00
2019-06-01T12:55:45.214Z,34.29
2019-06-01T12:58:16.726Z,34.00
2019-06-01T13:00:48.377Z,35.53
2019-06-01T13:03:19.978Z,37.18
2019-06-01T13:05:51.885Z,36.99
2019-06-01T13:08:22.722Z,36.31
2019-06-01T13:10:54.482Z,35.97
2019-06-01T13:13:25.518Z,35.23
2019-06-01T13:15:56.563Z,36.22
2019-06-01T13:18:27.981Z,35.28
2019-06-01T13:20:58.326Z,38.08
2019-06-01T13:23:29.849Z,38.42
2019-06-01T13:26:01.169Z,35.01
2019-06-01T13:28:38.105Z,34.53
2019-06-01T13:31:04.243Z,37.46
2019-06-01T13:33:35.482Z,35.69
2019-06-01T13:36:06.114Z,37.59
2019-06-01T13:38:44.506Z,38.58
2019-06-01T13:41:15.673Z,37.14
2019-06-01T13:43:47.484Z,34.48
2019-06-01T13:46:29.114Z,37.04
2019-06-01T13:49:01.381Z,35.52
2019-06-01T13:51:32.735Z,35.83
2019-06-01T13:54:04.088Z,33.72
2019-06-01T13:56:36.117Z,32.06
2019-06-01T13:59:07.196Z,35.71
2019-06-01T14:01:38.550Z,38.09
2019-06-01T14:04:09.499Z,35.42
2019-06-01T14:06:40.829Z,35.84
2019-06-01T14:09:11.850Z,35.01
2019-06-01T14:11:47.514Z,36.01
2019-06-01T14:14:19.551Z,38.21
2019-06-01T14:16:51.746Z,38.05
2019-06-01T14:19:23.144Z,40.63
2019-06-01T14:21:54.400Z,39.81
2019-06-01T14:24:25.375Z,37.97
2019-06-01T14:26:57.071Z,37.77
2019-06-01T14:29:28.176Z,39.49
2019-06-01T14:31:59.077Z,40.10
2019-06-01T14:34:30.486Z,41.40
2019-06-01T14:37:02.077Z,40.78
2019-06-01T14:39:33.172Z,41.02
2019-06-01T14:42:03.742Z,36.81
2019-06-01T14:44:38.731Z,37.27
2019-06-01T14:47:09.670Z,38.79
2019-06-01T14:49:40.636Z,40.11
2019-06-01T14:52:11.650Z,39.16
2019-06-01T14:54:42.981Z,38.51
2019-06-01T14:57:14.039Z,35.27
2019-06-01T14:59:45.692Z,36.91
2019-06-01T15:02:16.349Z,35.42
2019-06-01T15:04:48.242Z,36.63
2019-06-01T15:07:19.546Z,36.33
2019-06-01T15:09:50.596Z,38.28
2019-06-01T15:12:21.826Z,38.16
2019-06-01T15:14:53.024Z,37.15
2019-06-01T15:17:24.423Z,36.83
2019-06-01T15:19:56.177Z,37.80
2019-06-01T15:22:27.065Z,37.38
2019-06-01T15:24:58.501Z,37.81
2019-06-01T15:27:29.500Z,40.36
2019-06-01T15:30:00.469Z,41.29
2019-06-01T15:32:31.702Z,41.48
2019-06-01T15:35:03.332Z,43.85
2019-06-01T15:37:34.478Z,43.48
2019-06-01T15:40:06.569Z,43.15
2019-06-01T15:42:38.806Z,41.30
2019-06-01T15:45:11.119Z,44.11
2019-06-01T15:47:42.825Z,44.12
2019-06-01T15:50:14.189Z,39.59
2019-06-01T15:52:45.929Z,36.45
2019-06-01T15:55:17.304Z,36.88
2019-06-01T15:57:48.550Z,34.99
2019-06-01T16:00:22.565Z,33.88
2019-06-01T16:02:54.777Z,35.84
2019-06-01T16:05:27.931Z,35.06
2019-06-01T16:07:59.540Z,37.96
2019-06-01T16:10:30.610Z,39.56
2019-06-01T16:13:04.470Z,40.62
2019-06-01T16:15:35.930Z,42.34
2019-06-01T16:18:09.417Z,42.27
2019-06-01T16:20:40.813Z,39.18
2019-06-01T16:23:11.858Z,37.08
2019-06-01T16:26:03.738Z,37.12
2019-06-01T16:28:26.020Z,40.22
2019-06-01T16:30:56.652Z,41.52
2019-06-01T16:33:27.992Z,36.58
2019-06-01T16:35:58.877Z,33.73
2019-06-01T16:38:30.297Z,33.19
2019-06-01T16:41:03.599Z,36.39
2019-06-01T16:43:35.127Z,39.75
2019-06-01T16:46:08.530Z,40.81
2019-06-01T16:48:39.273Z,41.44
2019-06-01T16:51:09.649Z,39.01
2019-06-01T16:53:40.322Z,40.23
2019-06-01T16:56:11.885Z,36.03
2019-06-01T16:58:43.228Z,36.08
2019-06-01T17:01:14.369Z,38.79
2019-06-01T17:03:45.407Z,36.03
2019-06-01T17:06:16.080Z,35.31
2019-06-01T17:08:47.081Z,36.30
2019-06-01T17:11:18.730Z,34.62
2019-06-01T17:13:50.393Z,35.33
2019-06-01T17:16:22.603Z,35.72
2019-06-01T17:18:52.939Z,32.83
2019-06-01T17:21:24.606Z,31.55
2019-06-01T17:23:55.982Z,30.70
2019-06-01T17:26:26.705Z,30.83
2019-06-01T17:28:58.096Z,29.76
2019-06-01T17:31:29.207Z,30.40
2019-06-01T17:34:00.388Z,32.34
2019-06-01T17:36:30.884Z,33.40
2019-06-01T17:39:02.313Z,34.71
2019-06-01T17:41:33.985Z,35.98
2019-06-01T17:44:05.014Z,36.11
2019-06-01T17:46:52.332Z,36.53
2019-06-01T17:49:09.385Z,36.48
2019-06-01T17:51:40.703Z,36.96
2019-06-01T17:54:12.689Z,36.07
2019-06-01T17:56:45.363Z,36.24
2019-06-01T17:59:19.737Z,34.42
2019-06-01T18:01:53.497Z,34.86
2019-06-01T18:04:25.001Z,34.07
2019-06-01T18:06:57.969Z,34.78
2019-06-01T18:09:32.104Z,34.95
2019-06-01T18:12:05.978Z,33.83
2019-06-01T18:14:39.990Z,33.90
2019-06-01T18:17:10.983Z,32.84
2019-06-01T18:19:43.730Z,32.56
2019-06-01T18:22:18.947Z,32.89
2019-06-01T18:24:53.251Z,32.79
2019-06-01T18:27:27.556Z,33.13
2019-06-01T18:29:58.680Z,32.74
2019-06-01T18:32:35.005Z,30.97
2019-06-01T18:35:07.132Z,29.69
2019-06-01T18:37:39.348Z,27.99
2019-06-01T18:40:11.900Z,26.63
2019-06-01T18:42:46.015Z,25.63
2019-06-01T18:45:16.795Z,24.97
2019-06-01T18:47:49.235Z,24.30
2019-06-01T18:50:20.291Z,23.91
2019-06-01T18:52:51.319Z,23.47
2019-06-01T18:55:27.429Z,23.08
2019-06-01T18:58:00.803Z,22.68
2019-06-01T19:00:31.532Z,22.38
2019-06-01T19:03:04.497Z,22.13
2019-06-01T19:05:36.102Z,21.88
2019-06-01T19:08:09.249Z,21.68
2019-06-01T19:10:40.465Z,21.48
2019-06-01T19:13:15.815Z,21.32
2019-06-01T19:15:46.700Z,21.17
2019-06-01T19:18:20.883Z,21.05
2019-06-01T19:20:54.138Z,20.87
2019-06-01T19:23:28.967Z,20.71
2019-06-01T19:26:00.063Z,20.59
2019-06-01T19:28:32.374Z,20.43
2019-06-01T19:31:03.673Z,20.27
2019-06-01T19:33:34.290Z,20.15
2019-06-01T19:36:08.830Z,20.01
2019-06-01T19:38:41.501Z,19.84
2019-06-01T19:41:13.459Z,19.71
2019-06-01T19:43:44.170Z,19.57
2019-06-01T19:46:18.484Z,19.50
2019-06-01T19:48:52.117Z,19.42
2019-06-01T19:51:24.188Z,19.33
2019-06-01T19:53:55.554Z,19.21
2019-06-01T19:56:26.851Z,19.10
2019-06-01T19:58:58.531Z,19.00
2019-06-01T20:01:29.513Z,18.94
2019-06-01T20:04:01.471Z,18.78
2019-06-01T20:06:32.512Z,18.69
2019-06-01T20:09:03.148Z,18.64
2019-06-01T20:11:40.601Z,18.50
2019-06-01T20:14:12.149Z,18.38
2019-06-01T20:16:42.868Z,18.30
2019-06-01T20:19:15.660Z,18.19
2019-06-01T20:21:47.675Z,18.13
2019-06-01T20:24:19.418Z,18.12
2019-06-01T20:26:52.201Z,18.12
2019-06-01T20:29:23.456Z,18.08
2019-06-01T20:31:55.359Z,18.04
2019-06-01T20:34:29.563Z,17.97
2019-06-01T20:37:02.274Z,17.87
2019-06-01T20:39:33.762Z,17.76
2019-06-01T20:42:20.236Z,17.71
2019-06-01T20:44:39.074Z,17.68
2019-06-01T20:47:18.827Z,17.61
2019-06-01T20:49:53.665Z,17.63
2019-06-01T20:52:27.814Z,17.58
2019-06-01T20:55:01.506Z,17.53
2019-06-01T20:57:33.430Z,17.49
2019-06-01T21:00:05.272Z,17.44
2019-06-01T21:02:36.849Z,17.36
2019-06-01T21:05:09.392Z,17.27
2019-06-01T21:07:40.215Z,17.19
2019-06-01T21:10:11.831Z,17.16
2019-06-01T21:12:46.058Z,17.08
2019-06-01T21:15:19.335Z,17.11
2019-06-01T21:17:52.259Z,17.06
2019-06-01T21:20:32.776Z,16.96
2019-06-01T21:23:06.714Z,16.92
2019-06-01T21:25:38.537Z,16.86
2019-06-01T21:28:14.855Z,16.79
2019-06-01T21:30:49.354Z,16.74
2019-06-01T21:33:21.694Z,16.74
2019-06-01T21:36:02.438Z,16.70
2019-06-01T21:38:37.605Z,16.67
2019-06-01T21:41:07.973Z,16.65
2019-06-01T21:43:40.527Z,16.55
2019-06-01T21:46:11.851Z,16.47
2019-06-01T21:48:50.762Z,16.38
2019-06-01T21:51:26.151Z,16.25
2019-06-01T21:54:05.160Z,16.20
2019-06-01T21:56:41.325Z,16.17
2019-06-01T21:59:12.975Z,16.09
2019-06-01T22:01:44.038Z,16.00
2019-06-01T22:04:17.129Z,15.90
2019-06-01T22:06:50.476Z,15.82
2019-06-01T22:09:23.257Z,15.79
2019-06-01T22:11:58.685Z,15.74
2019-06-01T22:14:29.778Z,15.69
2019-06-01T22:17:00.581Z,15.65
2019-06-01T22:19:37.728Z,15.64
2019-06-01T22:22:12.326Z,15.60
2019-06-01T22:24:45.767Z,15.56
2019-06-01T22:27:26.325Z,15.53
2019-06-01T22:29:56.808Z,15.48
2019-06-01T22:32:31.576Z,15.39
2019-06-01T22:35:06.493Z,15.37
2019-06-01T22:37:42.055Z,15.31
2019-06-01T22:40:13.091Z,15.29
2019-06-01T22:42:44.093Z,15.26
2019-06-01T22:45:15.848Z,15.18
2019-06-01T22:47:47.667Z,15.10
2019-06-01T22:50:20.725Z,15.10
2019-06-01T22:53:01.140Z,15.08
2019-06-01T22:55:37.676Z,14.99
2019-06-01T22:58:09.156Z,14.99
2019-06-01T23:00:52.427Z,14.96
2019-06-01T23:03:28.096Z,14.91
2019-06-01T23:06:04.365Z,14.86
2019-06-01T23:08:40.496Z,14.75
2019-06-01T23:11:16.812Z,14.63
2019-06-01T23:13:53.945Z,14.54
2019-06-01T23:16:29.917Z,14.56
2019-06-01T23:19:01.356Z,14.53
2019-06-01T23:21:32.700Z,14.45
2019-06-01T23:24:05.546Z,14.41
2019-06-01T23:26:39.812Z,14.42
2019-06-01T23:29:13.115Z,14.45
2019-06-01T23:31:44.833Z,14.43
2019-06-01T23:34:16.366Z,14.40
2019-06-01T23:36:48.018Z,14.30
2019-06-01T23:39:18.999Z,14.24
2019-06-01T23:41:50.169Z,14.19
2019-06-01T23:44:24.853Z,14.19
2019-06-01T23:46:57.242Z,14.31
2019-06-01T23:49:31.268Z,14.29
2019-06-01T23:52:03.058Z,14.15
2019-06-01T23:54:33.945Z,14.06
2019-06-01T23:57:04.908Z,14.00
2019-06-01T23:59:36.222Z,13.99
